createdAt,value
2018-06-08T00:00:59.279Z,95131.30
2018-06-08T00:03:29.198Z,95127.89
2018-06-08T00:05:59.080Z,95132.14
2018-06-08T00:08:29.076Z,95123.97
2018-06-08T00:10:58.868Z,95130.30
2018-06-08T00:13:28.763Z,95124.74
2018-06-08T00:15:58.355Z,95126.34
2018-06-08T00:18:27.975Z,95123.92
2018-06-08T00:20:57.721Z,95122.63
2018-06-08T00:23:27.775Z,95120.53
2018-06-08T00:25:57.684Z,95123.14
2018-06-08T00:28:27.431Z,95121.28
2018-06-08T00:30:57.222Z,95117.88
2018-06-08T00:33:27.167Z,95117.65
2018-06-08T00:35:56.839Z,95120.52
2018-06-08T00:38:26.687Z,95120.50
2018-06-08T00:40:56.560Z,95113.67
2018-06-08T00:43:26.343Z,95122.87
2018-06-08T00:45:55.939Z,95121.03
2018-06-08T00:48:25.612Z,95107.33
2018-06-08T00:50:55.338Z,95111.02
2018-06-08T00:53:25.069Z,95110.74
2018-06-08T00:55:55.036Z,95109.14
2018-06-08T00:58:24.989Z,95108.64
2018-06-08T01:00:54.639Z,95111.77
2018-06-08T01:03:24.776Z,95116.24
2018-06-08T01:05:54.723Z,95116.00
2018-06-08T01:08:24.555Z,95116.25
2018-06-08T01:10:54.515Z,95117.84
2018-06-08T01:13:24.243Z,95123.09
2018-06-08T01:15:53.790Z,95122.28
2018-06-08T01:18:23.465Z,95115.14
2018-06-08T01:20:53.449Z,95108.55
2018-06-08T01:23:23.307Z,95106.45
2018-06-08T01:25:53.308Z,95105.31
2018-06-08T01:28:23.235Z,95100.75
2018-06-08T01:30:53.144Z,95102.86
2018-06-08T01:33:22.970Z,95109.77
2018-06-08T01:35:52.599Z,95108.59
2018-06-08T01:38:22.519Z,95101.55
2018-06-08T01:40:52.326Z,95104.34
2018-06-08T01:43:22.093Z,95102.69
2018-06-08T01:45:51.763Z,95110.13
2018-06-08T01:48:21.370Z,95113.31
2018-06-08T01:50:51.435Z,95116.14
2018-06-08T01:53:21.245Z,95109.28
2018-06-08T01:55:51.071Z,95114.80
2018-06-08T01:58:20.879Z,95104.52
2018-06-08T02:00:50.818Z,95103.98
2018-06-08T02:03:20.583Z,95101.09
2018-06-08T02:05:50.473Z,95104.29
2018-06-08T02:08:20.398Z,95100.86
2018-06-08T02:10:50.084Z,95102.17
2018-06-08T02:13:19.707Z,95099.02
2018-06-08T02:15:49.366Z,95100.33
2018-06-08T02:18:19.080Z,95099.05
2018-06-08T02:20:48.786Z,95101.91
2018-06-08T02:23:18.716Z,95111.62
2018-06-08T02:25:48.510Z,95116.79
2018-06-08T02:28:18.426Z,95121.01
2018-06-08T02:30:48.410Z,95120.20
2018-06-08T02:33:18.135Z,95126.00
2018-06-08T02:35:48.241Z,95121.59
2018-06-08T02:38:18.103Z,95121.63
2018-06-08T02:40:48.246Z,95122.64
2018-06-08T02:43:17.853Z,95126.06
2018-06-08T02:45:47.450Z,95131.27
2018-06-08T02:48:17.042Z,95133.43
2018-06-08T02:50:47.248Z,95126.12
2018-06-08T02:53:17.284Z,95130.03
2018-06-08T02:55:47.330Z,95130.80
2018-06-08T02:58:17.132Z,95134.28
2018-06-08T03:00:47.003Z,95136.65
2018-06-08T03:03:16.692Z,95137.23
2018-06-08T03:05:46.563Z,95136.08
2018-06-08T03:08:16.424Z,95137.70
2018-06-08T03:10:45.979Z,95137.70
2018-06-08T03:13:15.838Z,95141.13
2018-06-08T03:15:45.473Z,95139.59
2018-06-08T03:18:15.515Z,95142.75
2018-06-08T03:20:45.550Z,95151.41
2018-06-08T03:23:15.666Z,95155.55
2018-06-08T03:25:45.602Z,95153.90
2018-06-08T03:28:15.252Z,95160.33
2018-06-08T03:30:45.170Z,95163.77
2018-06-08T03:33:15.225Z,95167.18
2018-06-08T03:35:45.349Z,95170.69
2018-06-08T03:38:15.334Z,95170.77
2018-06-08T03:40:44.962Z,95163.95
2018-06-08T03:43:14.644Z,95161.61
2018-06-08T03:45:44.311Z,95153.37
2018-06-08T03:48:14.140Z,95155.51
2018-06-08T03:50:43.975Z,95153.66
2018-06-08T03:53:13.963Z,95153.94
2018-06-08T03:55:43.763Z,95147.92
2018-06-08T03:58:13.658Z,95146.87
2018-06-08T04:00:43.603Z,95137.63
2018-06-08T04:03:13.279Z,95136.31
2018-06-08T04:05:43.019Z,95139.23
2018-06-08T04:08:12.875Z,95141.06
2018-06-08T04:10:42.724Z,95139.73
2018-06-08T04:13:12.420Z,95143.11
2018-06-08T04:15:41.991Z,95136.70
2018-06-08T04:18:11.668Z,95135.50
2018-06-08T04:20:41.496Z,95134.81
2018-06-08T04:23:11.326Z,95143.91
2018-06-08T04:25:41.262Z,95145.94
2018-06-08T04:28:11.123Z,95143.87
2018-06-08T04:30:40.751Z,95138.86
2018-06-08T04:33:10.481Z,95152.94
2018-06-08T04:35:40.319Z,95153.92
2018-06-08T04:38:10.476Z,95160.06
2018-06-08T04:40:40.603Z,95151.95
2018-06-08T04:43:10.632Z,95166.86
2018-06-08T04:45:40.318Z,95161.91
2018-06-08T04:48:10.085Z,95165.19
2018-06-08T04:50:39.836Z,95169.67
2018-06-08T04:53:09.669Z,95167.09
2018-06-08T04:55:39.584Z,95170.92
2018-06-08T04:58:09.347Z,95181.12
2018-06-08T05:00:38.934Z,95179.38
2018-06-08T05:03:08.812Z,95178.98
2018-06-08T05:05:38.652Z,95187.56
2018-06-08T05:08:08.359Z,95186.88
2018-06-08T05:10:37.976Z,95191.27
2018-06-08T05:13:07.650Z,95183.09
2018-06-08T05:15:37.263Z,95185.34
2018-06-08T05:18:06.987Z,95180.62
2018-06-08T05:20:36.852Z,95186.05
2018-06-08T05:23:06.404Z,95176.52
2018-06-08T05:25:36.144Z,95175.55
2018-06-08T05:28:06.208Z,95184.82
2018-06-08T05:30:35.867Z,95185.67
2018-06-08T05:33:06.051Z,95181.81
2018-06-08T05:35:36.031Z,95190.67
2018-06-08T05:38:06.046Z,95181.22
2018-06-08T05:40:35.659Z,95182.86
2018-06-08T05:43:05.167Z,95185.30
2018-06-08T05:45:34.853Z,95185.08
2018-06-08T05:48:04.744Z,95187.37
2018-06-08T05:50:34.676Z,95192.34
2018-06-08T05:53:04.458Z,95187.04
2018-06-08T05:55:34.695Z,95191.64
2018-06-08T05:58:04.538Z,95191.55
2018-06-08T06:00:34.718Z,95188.78
2018-06-08T06:03:04.832Z,95188.45
2018-06-08T06:05:34.645Z,95183.14
2018-06-08T06:08:04.432Z,95177.42
2018-06-08T06:10:34.064Z,95185.98
2018-06-08T06:13:03.707Z,95190.95
2018-06-08T06:15:33.767Z,95184.43
2018-06-08T06:18:03.914Z,95180.12
2018-06-08T06:20:33.583Z,95186.03
2018-06-08T06:23:03.249Z,95181.18
2018-06-08T06:25:33.230Z,95183.16
2018-06-08T06:28:03.094Z,95177.59
2018-06-08T06:30:33.220Z,95178.14
2018-06-08T06:33:03.046Z,95175.61
2018-06-08T06:35:32.765Z,95178.14
2018-06-08T06:38:02.652Z,95174.31
2018-06-08T06:40:32.139Z,95178.73
2018-06-08T06:43:01.682Z,95180.25
2018-06-08T06:45:31.241Z,95174.30
2018-06-08T06:48:01.022Z,95172.41
2018-06-08T06:50:30.558Z,95170.46
2018-06-08T06:53:00.335Z,95167.20
2018-06-08T06:55:29.883Z,95171.11
2018-06-08T06:57:59.635Z,95166.19
2018-06-08T07:00:29.283Z,95170.83
2018-06-08T07:02:58.920Z,95169.81
2018-06-08T07:05:28.768Z,95161.72
2018-06-08T07:07:58.338Z,95165.16
2018-06-08T07:10:27.922Z,95164.53
2018-06-08T07:12:57.588Z,95158.66
2018-06-08T07:15:27.296Z,95158.61
2018-06-08T07:17:57.127Z,95156.64
2018-06-08T07:20:26.605Z,95153.03
2018-06-08T07:22:56.530Z,95149.81
2018-06-08T07:25:26.355Z,95148.02
2018-06-08T07:27:56.366Z,95151.19
2018-06-08T07:30:27.109Z,95141.41
2018-06-08T07:32:56.855Z,95146.33
2018-06-08T07:35:27.500Z,95146.30
2018-06-08T07:37:57.148Z,95144.07
2018-06-08T07:40:26.860Z,95144.91
2018-06-08T07:42:56.454Z,95136.55
2018-06-08T07:45:26.863Z,95142.91
2018-06-08T07:47:56.742Z,95137.91
2018-06-08T07:50:27.029Z,95138.97
2018-06-08T07:52:56.941Z,95135.30
2018-06-08T07:55:26.755Z,95132.67
2018-06-08T07:57:56.745Z,95132.80
2018-06-08T08:00:26.447Z,95132.19
2018-06-08T08:02:56.401Z,95129.52
2018-06-08T08:05:26.451Z,95125.48
2018-06-08T08:07:56.027Z,95126.97
2018-06-08T08:10:25.677Z,95126.32
2018-06-08T08:12:55.251Z,95123.27
2018-06-08T08:15:25.082Z,95120.78
2018-06-08T08:17:54.955Z,95119.16
2018-06-08T08:20:24.794Z,95108.85
2018-06-08T08:22:54.508Z,95112.23
2018-06-08T08:25:24.754Z,95106.08
2018-06-08T08:27:54.664Z,95105.84
2018-06-08T08:30:24.703Z,95102.62
2018-06-08T08:32:54.598Z,95096.38
2018-06-08T08:35:24.770Z,95093.91
2018-06-08T08:37:54.387Z,95092.80
2018-06-08T08:40:23.865Z,95096.26
2018-06-08T08:42:53.810Z,95084.88
2018-06-08T08:45:23.318Z,95088.32
2018-06-08T08:47:54.142Z,95086.09
2018-06-08T08:50:24.059Z,95085.30
2018-06-08T08:52:54.063Z,95084.98
2018-06-08T08:55:23.689Z,95081.06
2018-06-08T08:57:53.443Z,95073.23
2018-06-08T09:00:23.091Z,95073.63
2018-06-08T09:02:53.057Z,95073.36
2018-06-08T09:05:22.708Z,95062.44
2018-06-08T09:07:52.535Z,95057.30
2018-06-08T09:10:22.294Z,95067.64
2018-06-08T09:12:51.910Z,95059.96
2018-06-08T09:15:21.562Z,95061.66
2018-06-08T09:17:51.444Z,95059.96
2018-06-08T09:20:21.430Z,95065.80
2018-06-08T09:22:51.470Z,95053.08
2018-06-08T09:25:21.893Z,95051.45
2018-06-08T09:27:52.605Z,95048.73
2018-06-08T09:30:22.546Z,95054.32
2018-06-08T09:32:52.152Z,95045.41
2018-06-08T09:35:22.036Z,95045.63
2018-06-08T09:37:51.882Z,95043.23
2018-06-08T09:40:21.454Z,95035.44
2018-06-08T09:42:51.192Z,95041.37
2018-06-08T09:45:21.255Z,95036.33
2018-06-08T09:47:51.098Z,95028.83
2018-06-08T09:50:21.054Z,95027.81
2018-06-08T09:52:50.817Z,95034.55
2018-06-08T09:55:21.019Z,95035.05
2018-06-08T09:57:50.633Z,95025.58
2018-06-08T10:00:25.660Z,95022.71
2018-06-08T10:02:55.507Z,95019.13
2018-06-08T10:05:25.851Z,95028.07
2018-06-08T10:07:55.643Z,95022.40
2018-06-08T10:10:25.314Z,95020.60
2018-06-08T10:12:54.840Z,95009.11
2018-06-08T10:15:25.092Z,95004.81
2018-06-08T10:17:54.807Z,95005.19
2018-06-08T10:20:24.811Z,95000.83
2018-06-08T10:22:54.547Z,94998.64
2018-06-08T10:25:24.598Z,94999.63
2018-06-08T10:27:54.390Z,95000.28
2018-06-08T10:30:24.475Z,94994.71
2018-06-08T10:32:54.435Z,94991.55
2018-06-08T10:35:25.060Z,94992.87
2018-06-08T10:37:54.972Z,94990.99
2018-06-08T10:40:25.391Z,94988.95
2018-06-08T10:42:55.025Z,94989.53
2018-06-08T10:45:24.833Z,94989.64
2018-06-08T10:47:54.486Z,94979.20
2018-06-08T10:50:25.128Z,94975.10
2018-06-08T10:52:55.067Z,94974.74
2018-06-08T10:55:24.809Z,94975.47
2018-06-08T10:57:54.659Z,94968.74
2018-06-08T11:00:24.719Z,94961.30
2018-06-08T11:02:54.397Z,94954.19
2018-06-08T11:05:24.312Z,94955.02
2018-06-08T11:07:54.331Z,94951.03
2018-06-08T11:10:24.195Z,94954.56
2018-06-08T11:12:53.807Z,94952.19
2018-06-08T11:15:23.569Z,94940.94
2018-06-08T11:17:53.157Z,94944.83
2018-06-08T11:20:23.005Z,94934.37
2018-06-08T11:22:52.740Z,94935.59
2018-06-08T11:25:22.481Z,94932.20
2018-06-08T11:27:52.350Z,94941.34
2018-06-08T11:30:21.837Z,94936.35
2018-06-08T11:32:51.583Z,94930.93
2018-06-08T11:35:21.539Z,94928.95
2018-06-08T11:37:51.123Z,94925.59
2018-06-08T11:40:20.887Z,94927.75
2018-06-08T11:42:50.610Z,94923.13
2018-06-08T11:45:20.247Z,94913.97
2018-06-08T11:47:49.768Z,94916.91
2018-06-08T11:50:19.897Z,94916.03
2018-06-08T11:52:49.722Z,94906.62
2018-06-08T11:55:19.591Z,94905.96
2018-06-08T11:57:49.360Z,94898.67
2018-06-08T12:00:19.100Z,94899.81
2018-06-08T12:02:49.103Z,94893.71
2018-06-08T12:05:19.143Z,94888.95
2018-06-08T12:07:49.093Z,94886.09
2018-06-08T12:10:18.720Z,94886.47
2018-06-08T12:12:48.470Z,94883.08
2018-06-08T12:15:18.068Z,94875.61
2018-06-08T12:17:47.531Z,94875.11
2018-06-08T12:20:17.420Z,94868.66
2018-06-08T12:22:47.167Z,94858.20
2018-06-08T12:25:17.095Z,94859.42
2018-06-08T12:27:46.727Z,94853.44
2018-06-08T12:30:16.646Z,94857.45
2018-06-08T12:32:46.658Z,94857.30
2018-06-08T12:35:16.436Z,94856.59
2018-06-08T12:37:46.192Z,94841.91
2018-06-08T12:40:15.926Z,94841.08
2018-06-08T12:42:45.728Z,94843.54
2018-06-08T12:45:15.459Z,94844.97
2018-06-08T12:47:45.071Z,94831.63
2018-06-08T12:50:15.062Z,94833.55
2018-06-08T12:52:44.922Z,94831.39
2018-06-08T12:55:14.669Z,94826.83
2018-06-08T12:57:44.622Z,94825.58
2018-06-08T13:00:14.398Z,94823.01
2018-06-08T13:02:44.282Z,94820.48
2018-06-08T13:05:14.183Z,94812.45
2018-06-08T13:07:43.842Z,94813.25
2018-06-08T13:10:13.780Z,94810.91
2018-06-08T13:12:43.382Z,94810.08
2018-06-08T13:15:12.960Z,94796.66
2018-06-08T13:17:42.809Z,94792.75
2018-06-08T13:20:12.419Z,94789.71
2018-06-08T13:22:42.463Z,94785.99
2018-06-08T13:25:12.051Z,94784.89
2018-06-08T13:27:41.874Z,94789.55
2018-06-08T13:30:11.857Z,94787.91
2018-06-08T13:32:41.683Z,94784.54
2018-06-08T13:35:11.480Z,94781.56
2018-06-08T13:37:41.552Z,94779.37
2018-06-08T13:40:11.205Z,94783.43
2018-06-08T13:42:40.971Z,94777.14
2018-06-08T13:45:10.518Z,94773.45
2018-06-08T13:47:40.287Z,94767.80
2018-06-08T13:50:09.885Z,94763.67
2018-06-08T13:52:39.671Z,94765.31
2018-06-08T13:55:09.541Z,94757.63
2018-06-08T13:57:39.266Z,94749.92
2018-06-08T14:00:09.133Z,94747.81
2018-06-08T14:02:39.086Z,94743.86
2018-06-08T14:05:08.814Z,94744.09
2018-06-08T14:07:38.830Z,94739.73
2018-06-08T14:10:10.732Z,94736.25
2018-06-08T14:12:40.415Z,94725.11
2018-06-08T14:15:10.102Z,94720.28
2018-06-08T14:17:40.253Z,94713.14
2018-06-08T14:20:09.951Z,94712.09
2018-06-08T14:22:39.978Z,94712.34
2018-06-08T14:25:09.689Z,94708.34
2018-06-08T14:27:39.482Z,94697.82
2018-06-08T14:30:09.411Z,94697.33
2018-06-08T14:32:39.439Z,94691.50
2018-06-08T14:35:09.338Z,94680.55
2018-06-08T14:37:39.411Z,94689.80
2018-06-08T14:40:09.412Z,94691.45
2018-06-08T14:42:39.097Z,94683.48
2018-06-08T14:45:08.658Z,94685.33
2018-06-08T14:47:38.238Z,94688.68
2018-06-08T14:50:08.008Z,94687.93
2018-06-08T14:52:37.773Z,94691.22
2018-06-08T14:55:07.588Z,94691.58
2018-06-08T14:57:37.591Z,94682.64
2018-06-08T15:00:07.382Z,94674.64
2018-06-08T15:02:37.300Z,94675.16
2018-06-08T15:05:07.346Z,94679.98
2018-06-08T15:07:37.021Z,94672.64
2018-06-08T15:10:06.977Z,94675.08
2018-06-08T15:12:36.726Z,94666.66
2018-06-08T15:15:06.198Z,94671.46
2018-06-08T15:17:36.157Z,94667.94
2018-06-08T15:20:05.899Z,94665.21
2018-06-08T15:22:36.037Z,94670.61
2018-06-08T15:25:05.737Z,94667.91
2018-06-08T15:27:35.531Z,94668.99
2018-06-08T15:30:05.501Z,94667.09
2018-06-08T15:32:35.261Z,94673.02
2018-06-08T15:35:05.111Z,94664.77
2018-06-08T15:37:35.032Z,94669.84
2018-06-08T15:40:04.544Z,94672.15
2018-06-08T15:42:34.185Z,94673.23
2018-06-08T15:45:03.926Z,94672.62
2018-06-08T15:47:33.781Z,94672.03
2018-06-08T15:50:03.757Z,94673.05
2018-06-08T15:52:33.651Z,94682.13
2018-06-08T15:55:03.423Z,94690.89
2018-06-08T15:57:33.289Z,94687.44
2018-06-08T16:00:03.147Z,94695.61
2018-06-08T16:02:32.959Z,94690.47
2018-06-08T16:05:02.721Z,94693.81
2018-06-08T16:07:32.687Z,94689.75
2018-06-08T16:10:02.260Z,94688.64
2018-06-08T16:12:31.952Z,94674.58
2018-06-08T16:15:01.723Z,94692.71
2018-06-08T16:17:31.588Z,94693.57
2018-06-08T16:20:01.468Z,94690.15
2018-06-08T16:22:31.291Z,94692.02
2018-06-08T16:25:01.084Z,94687.77
2018-06-08T16:27:30.737Z,94685.56
2018-06-08T16:30:00.847Z,94689.13
2018-06-08T16:32:30.616Z,94689.16
2018-06-08T16:35:00.285Z,94695.06
2018-06-08T16:37:29.878Z,94689.20
2018-06-08T16:39:59.426Z,94695.57
2018-06-08T16:42:29.002Z,94695.57
2018-06-08T16:44:58.698Z,94697.38
2018-06-08T16:47:28.344Z,94703.11
2018-06-08T16:49:58.015Z,94693.38
2018-06-08T16:52:27.773Z,94695.16
2018-06-08T16:54:57.595Z,94701.59
2018-06-08T16:57:27.299Z,94693.86
2018-06-08T16:59:56.881Z,94690.62
2018-06-08T17:02:26.624Z,94691.52
2018-06-08T17:04:56.551Z,94689.62
2018-06-08T17:07:26.569Z,94683.62
2018-06-08T17:09:56.213Z,94688.63
2018-06-08T17:12:25.763Z,94681.55
2018-06-08T17:14:57.036Z,94673.63
2018-06-08T17:17:26.856Z,94673.71
2018-06-08T17:19:56.802Z,94669.82
2018-06-08T17:22:26.307Z,94663.26
2018-06-08T17:24:55.999Z,94666.38
2018-06-08T17:27:25.851Z,94666.37
2018-06-08T17:29:55.895Z,94668.71
2018-06-08T17:32:25.697Z,94662.01
2018-06-08T17:34:55.414Z,94658.52
2018-06-08T17:37:25.091Z,94658.22
2018-06-08T17:39:55.382Z,94659.75
2018-06-08T17:42:25.037Z,94653.95
2018-06-08T17:44:54.779Z,94651.28
2018-06-08T17:47:24.779Z,94642.98
2018-06-08T17:49:54.682Z,94643.31
2018-06-08T17:52:24.553Z,94630.08
2018-06-08T17:54:54.396Z,94628.05
2018-06-08T17:57:24.123Z,94628.06
2018-06-08T17:59:54.291Z,94621.39
2018-06-08T18:02:24.159Z,94625.50
2018-06-08T18:04:53.710Z,94622.17
2018-06-08T18:07:23.308Z,94611.69
2018-06-08T18:09:53.112Z,94606.77
2018-06-08T18:14:51.505Z,94603.08
2018-06-08T18:17:21.516Z,94608.63
2018-06-08T18:19:51.511Z,94611.83
2018-06-08T18:22:21.275Z,94617.50
2018-06-08T18:24:51.087Z,94618.88
2018-06-08T18:27:20.627Z,94619.88
2018-06-08T18:29:50.331Z,94625.16
2018-06-08T18:32:20.274Z,94633.66
2018-06-08T18:34:50.036Z,94630.09
2018-06-08T18:37:19.779Z,94623.73
2018-06-08T18:39:49.750Z,94617.67
2018-06-08T18:42:19.532Z,94606.00
2018-06-08T18:44:49.504Z,94607.14
2018-06-08T18:47:19.272Z,94606.80
2018-06-08T18:49:49.036Z,94603.46
2018-06-08T18:52:18.904Z,94598.53
2018-06-08T18:54:48.676Z,94593.23
2018-06-08T18:57:18.448Z,94591.88
2018-06-08T18:59:48.023Z,94600.67
2018-06-08T19:02:17.685Z,94594.22
2018-06-08T19:04:47.644Z,94591.61
2018-06-08T19:07:17.397Z,94593.03
2018-06-08T19:09:47.175Z,94602.06
2018-06-08T19:12:17.134Z,94604.11
2018-06-08T19:14:47.151Z,94601.77
2018-06-08T19:17:17.005Z,94596.34
2018-06-08T19:19:46.958Z,94595.45
2018-06-08T19:22:16.753Z,94606.18
2018-06-08T19:24:46.557Z,94605.14
2018-06-08T19:27:16.223Z,94611.73
2018-06-08T19:29:45.788Z,94621.37
2018-06-08T19:32:15.431Z,94626.16
2018-06-08T19:34:44.999Z,94615.67
2018-06-08T19:37:14.948Z,94627.77
2018-06-08T19:39:44.726Z,94633.77
2018-06-08T19:42:14.439Z,94633.91
2018-06-08T19:44:44.167Z,94656.52
2018-06-08T19:47:14.065Z,94660.43
2018-06-08T19:49:44.083Z,94660.50
2018-06-08T19:52:14.110Z,94662.77
2018-06-08T19:54:43.686Z,94670.22
2018-06-08T19:57:13.278Z,94667.23
2018-06-08T19:59:42.829Z,94656.67
2018-06-08T20:02:12.728Z,94671.03
2018-06-08T20:04:42.666Z,94672.16
2018-06-08T20:07:12.470Z,94672.32
2018-06-08T20:09:42.513Z,94676.50
2018-06-08T20:12:12.307Z,94673.74
2018-06-08T20:14:42.047Z,94678.79
2018-06-08T20:17:11.702Z,94673.70
2018-06-08T20:19:41.570Z,94671.33
2018-06-08T20:22:11.225Z,94682.74
2018-06-08T20:24:40.775Z,94686.06
2018-06-08T20:27:10.358Z,94685.74
2018-06-08T20:29:40.091Z,94686.78
2018-06-08T20:32:09.840Z,94685.59
2018-06-08T20:34:39.742Z,94675.47
2018-06-08T20:37:09.303Z,94672.47
2018-06-08T20:39:39.153Z,94668.14
2018-06-08T20:42:08.868Z,94669.40
2018-06-08T20:44:38.822Z,94664.30
2018-06-08T20:47:08.882Z,94669.03
2018-06-08T20:49:38.550Z,94663.97
2018-06-08T20:52:08.529Z,94667.00
2018-06-08T20:54:38.063Z,94663.42
2018-06-08T20:57:12.700Z,94664.99
2018-06-08T20:59:42.398Z,94673.74
2018-06-08T21:02:12.521Z,94669.50
2018-06-08T21:04:42.548Z,94668.60
2018-06-08T21:07:12.494Z,94669.23
2018-06-08T21:09:42.411Z,94664.36
2018-06-08T21:12:12.373Z,94665.85
2018-06-08T21:14:43.131Z,94662.39
2018-06-08T21:17:12.993Z,94663.77
2018-06-08T21:19:42.832Z,94660.06
2018-06-08T21:22:12.684Z,94663.50
2018-06-08T21:24:42.313Z,94659.22
2018-06-08T21:27:11.933Z,94657.80
2018-06-08T21:29:41.566Z,94647.87
2018-06-08T21:32:11.503Z,94647.02
2018-06-08T21:34:41.204Z,94645.75
2018-06-08T21:37:10.855Z,94647.40
2018-06-08T21:39:40.723Z,94643.30
2018-06-08T21:42:10.391Z,94635.34
2018-06-08T21:44:40.228Z,94630.05
2018-06-08T21:47:10.256Z,94631.50
2018-06-08T21:49:40.286Z,94630.50
2018-06-08T21:52:10.077Z,94632.29
2018-06-08T21:54:39.694Z,94630.86
2018-06-08T21:57:09.254Z,94618.28
2018-06-08T21:59:39.339Z,94622.46
2018-06-08T22:02:09.430Z,94636.93
2018-06-08T22:04:39.400Z,94631.48
2018-06-08T22:07:09.538Z,94619.80
2018-06-08T22:09:39.256Z,94620.03
2018-06-08T22:12:09.248Z,94628.23
2018-06-08T22:14:39.407Z,94625.42
2018-06-08T22:17:09.098Z,94621.55
2018-06-08T22:19:39.062Z,94623.66
2018-06-08T22:22:08.879Z,94619.19
2018-06-08T22:24:38.518Z,94617.65
2018-06-08T22:27:08.088Z,94625.52
2018-06-08T22:29:37.815Z,94613.92
2018-06-08T22:32:07.632Z,94608.30
2018-06-08T22:34:37.536Z,94603.83
2018-06-08T22:37:07.311Z,94603.48
2018-06-08T22:39:37.122Z,94599.09
2018-06-08T22:42:06.886Z,94598.86
2018-06-08T22:44:36.644Z,94602.09
2018-06-08T22:47:06.566Z,94611.50
2018-06-08T22:49:36.466Z,94611.98
2018-06-08T22:52:06.073Z,94600.28
2018-06-08T22:54:35.677Z,94597.05
2018-06-08T22:57:05.366Z,94597.94
2018-06-08T22:59:35.463Z,94597.45
2018-06-08T23:02:05.318Z,94601.14
2018-06-08T23:04:34.894Z,94594.93
2018-06-08T23:07:04.479Z,94591.74
2018-06-08T23:09:34.290Z,94594.19
2018-06-08T23:12:04.022Z,94585.62
2018-06-08T23:14:33.524Z,94584.34
2018-06-08T23:17:03.379Z,94585.29
2018-06-08T23:19:33.179Z,94584.34
2018-06-08T23:22:02.858Z,94580.95
2018-06-08T23:24:32.396Z,94577.42
2018-06-08T23:27:01.940Z,94577.17
2018-06-08T23:29:31.697Z,94573.37
2018-06-08T23:32:01.668Z,94565.17
2018-06-08T23:34:31.687Z,94575.42
2018-06-08T23:37:01.465Z,94572.49
2018-06-08T23:39:31.365Z,94574.84
2018-06-08T23:42:01.110Z,94576.14
2018-06-08T23:44:30.887Z,94572.86
2018-06-08T23:47:00.752Z,94580.89
2018-06-08T23:49:30.558Z,94577.34
2018-06-08T23:52:00.198Z,94568.98
2018-06-08T23:54:29.753Z,94568.67
2018-06-08T23:56:59.510Z,94575.84
2018-06-08T23:59:29.205Z,94568.41
